Time;durP1;ratioP1;P1;durP2;ratioP2;P2;SDS_P1;SDS_P2;PMS_P1;PMS_P2;Temp;Humidity;BMP_temperature;BMP_pressure;BME280_temperature;BME280_humidity;BME280_pressure;Samples;Min_cycle;Max_cycle;Signal;HPM_P1;HPM_P2
2023/11/12 00:00:21;;;;;;;4.90;4.20;;;10.50;97.10;;;;;;5029476;28;20444;-30
2023/11/12 00:02:47;;;;;;;6.43;4.73;;;10.60;97.10;;;;;;5035960;28;20442;-30
2023/11/12 00:05:19;;;;;;;4.70;4.30;;;10.50;97.10;;;;;;5032481;28;20427;-30
2023/11/12 00:07:45;;;;;;;4.82;4.30;;;10.50;97.10;;;;;;5032203;28;20496;-30
2023/11/12 00:10:11;;;;;;;5.72;4.53;;;10.50;97.10;;;;;;5030782;28;20271;-29
2023/11/12 00:12:39;;;;;;;4.50;4.10;;;10.60;97.00;;;;;;5033594;28;20224;-29
2023/11/12 00:15:06;;;;;;;5.27;4.77;;;10.60;96.90;;;;;;5030096;28;20447;-30
2023/11/12 00:17:33;;;;;;;8.10;5.05;;;10.60;96.80;;;;;;5033556;28;20485;-31
2023/11/12 00:20:00;;;;;;;6.20;4.97;;;10.60;96.90;;;;;;5033410;28;20309;-31
2023/11/12 00:22:27;;;;;;;8.03;5.10;;;10.60;96.80;;;;;;4994612;28;20459;-30
2023/11/12 00:24:54;;;;;;;5.45;4.45;;;10.60;96.80;;;;;;5027395;28;20918;-30
2023/11/12 00:27:22;;;;;;;5.30;4.77;;;10.60;96.80;;;;;;5010290;28;20223;-30
2023/11/12 00:29:48;;;;;;;4.82;4.32;;;10.60;96.70;;;;;;5006953;28;20503;-30
2023/11/12 00:32:17;;;;;;;6.82;4.68;;;10.60;96.70;;;;;;4996000;28;20290;-30
2023/11/12 00:34:42;;;;;;;6.77;4.70;;;10.70;96.70;;;;;;5005691;28;20275;-31
2023/11/12 00:37:09;;;;;;;5.33;4.83;;;10.70;96.60;;;;;;5023509;28;20484;-30
2023/11/12 00:39:40;;;;;;;4.80;4.30;;;10.60;96.60;;;;;;5013732;28;20435;-31
2023/11/12 00:42:06;;;;;;;6.07;4.78;;;10.60;96.60;;;;;;4998586;28;20462;-29
2023/11/12 00:44:35;;;;;;;7.50;5.47;;;10.60;96.70;;;;;;5014677;28;20210;-30
2023/11/12 00:47:01;;;;;;;6.77;4.77;;;10.60;96.70;;;;;;5013003;28;20439;-28
2023/11/12 00:49:30;;;;;;;5.90;5.00;;;10.60;96.70;;;;;;5001078;28;20444;-30
2023/11/12 00:51:56;;;;;;;5.70;4.27;;;10.60;96.80;;;;;;5015711;28;20559;-29
2023/11/12 00:54:22;;;;;;;6.40;4.43;;;10.50;96.80;;;;;;4995536;28;20435;-30
2023/11/12 00:56:51;;;;;;;5.37;4.87;;;10.50;96.80;;;;;;5009818;28;20890;-30
2023/11/12 00:59:18;;;;;;;7.33;4.97;;;10.50;96.80;;;;;;5038308;28;20419;-30
2023/11/12 01:01:44;;;;;;;5.23;4.73;;;10.50;96.80;;;;;;5027741;28;21040;-30
2023/11/12 01:04:15;;;;;;;5.30;4.80;;;10.50;96.80;;;;;;5005133;28;21125;-29
2023/11/12 01:06:41;;;;;;;5.28;4.53;;;10.50;96.90;;;;;;5015393;28;20439;-29
2023/11/12 01:09:10;;;;;;;5.23;4.73;;;10.50;97.00;;;;;;5004967;28;20217;-30
2023/11/12 01:11:40;;;;;;;5.43;4.93;;;10.50;96.90;;;;;;5034581;28;20553;-31
2023/11/12 01:14:07;;;;;;;5.13;4.63;;;10.50;96.90;;;;;;5016823;28;20423;-28
2023/11/12 01:16:33;;;;;;;5.90;5.30;;;10.60;96.80;;;;;;5037665;28;20754;-31
2023/11/12 01:19:01;;;;;;;7.83;4.53;;;10.60;96.70;;;;;;5032273;28;20432;-31
2023/11/12 01:21:27;;;;;;;7.03;5.27;;;10.50;96.70;;;;;;5029208;28;20485;-30
2023/11/12 01:23:54;;;;;;;6.90;4.60;;;10.50;96.80;;;;;;5015463;28;20907;-31
2023/11/12 01:26:20;;;;;;;6.30;4.73;;;10.50;96.80;;;;;;5019358;28;20479;-31
2023/11/12 01:28:49;;;;;;;5.60;4.43;;;10.50;96.90;;;;;;5010839;28;20422;-30
2023/11/12 01:31:17;;;;;;;5.80;5.23;;;10.50;96.90;;;;;;5018740;28;20451;-31
2023/11/12 01:33:46;;;;;;;6.57;5.57;;;10.40;96.90;;;;;;5028479;28;20523;-30
2023/11/12 01:36:12;;;;;;;6.57;5.20;;;10.40;97.00;;;;;;5032489;28;20456;-30
2023/11/12 01:38:38;;;;;;;6.13;4.73;;;10.40;97.00;;;;;;5027150;28;21102;-31
2023/11/12 01:41:04;;;;;;;6.30;5.10;;;10.40;97.10;;;;;;5013168;28;20452;-30
2023/11/12 01:43:31;;;;;;;5.77;4.90;;;10.40;97.10;;;;;;5016532;28;20430;-30
2023/11/12 01:46:02;;;;;;;6.47;4.53;;;10.40;97.10;;;;;;5015954;28;20743;-30
2023/11/12 01:48:30;;;;;;;5.30;4.57;;;10.40;97.20;;;;;;5004635;28;20824;-29
2023/11/12 01:50:58;;;;;;;5.50;4.83;;;10.40;97.20;;;;;;5017643;28;20457;-31
2023/11/12 01:53:26;;;;;;;4.57;4.18;;;10.40;97.20;;;;;;5013005;28;20474;-31
2023/11/12 01:55:54;;;;;;;6.90;5.47;;;10.40;97.20;;;;;;5027169;28;20236;-30
2023/11/12 01:58:22;;;;;;;5.38;4.43;;;10.40;97.10;;;;;;5016377;28;20420;-28
2023/11/12 02:00:53;;;;;;;8.60;4.72;;;10.40;97.00;;;;;;5003543;28;20255;-31
2023/11/12 02:03:20;;;;;;;6.57;4.30;;;10.50;97.00;;;;;;5013450;28;20335;-31
2023/11/12 02:05:51;;;;;;;5.53;4.43;;;10.50;96.80;;;;;;5016770;28;20449;-30
2023/11/12 02:08:21;;;;;;;5.70;4.40;;;10.50;96.80;;;;;;4997225;28;20220;-30
2023/11/12 02:10:49;;;;;;;6.03;4.97;;;10.50;96.80;;;;;;5011644;28;20973;-31
2023/11/12 02:13:18;;;;;;;5.27;4.77;;;10.50;96.80;;;;;;5017216;28;20472;-29
2023/11/12 02:15:46;;;;;;;5.03;4.50;;;10.50;96.90;;;;;;5009722;28;20419;-30
2023/11/12 02:18:14;;;;;;;4.87;4.23;;;10.50;96.90;;;;;;4997569;28;20217;-30
2023/11/12 02:20:46;;;;;;;7.60;4.23;;;10.50;96.90;;;;;;5035364;28;20484;-30
2023/11/12 02:23:15;;;;;;;8.87;4.50;;;10.50;96.90;;;;;;5001886;28;20441;-30
2023/11/12 02:25:44;;;;;;;5.90;4.53;;;10.40;96.90;;;;;;5009692;28;21253;-29
2023/11/12 02:28:17;;;;;;;5.83;4.73;;;10.40;97.00;;;;;;5035441;28;20434;-30
2023/11/12 02:30:45;;;;;;;5.30;4.80;;;10.30;97.00;;;;;;5019640;28;20927;-30
2023/11/12 02:33:13;;;;;;;5.37;4.87;;;10.30;97.10;;;;;;5012762;28;20617;-30
2023/11/12 02:35:47;;;;;;;5.17;4.30;;;10.30;97.10;;;;;;5017979;28;20433;-31
2023/11/12 02:38:13;;;;;;;6.47;4.27;;;10.30;97.10;;;;;;5008737;28;20868;-30
2023/11/12 02:40:39;;;;;;;4.87;4.27;;;10.30;97.20;;;;;;5027023;28;20454;-27
2023/11/12 02:43:09;;;;;;;6.53;5.07;;;10.30;97.20;;;;;;5001041;28;20447;-30
2023/11/12 02:45:39;;;;;;;4.30;3.90;;;10.30;97.20;;;;;;5020354;28;20799;-28
2023/11/12 02:48:10;;;;;;;4.80;4.30;;;10.30;97.20;;;;;;5004571;28;20688;-29
2023/11/12 02:50:36;;;;;;;4.80;4.30;;;10.40;97.10;;;;;;5004966;28;20437;-29
2023/11/12 02:53:04;;;;;;;4.82;3.90;;;10.40;97.10;;;;;;4988253;28;20474;-30
2023/11/12 02:55:32;;;;;;;4.17;3.77;;;10.40;97.10;;;;;;5003265;28;20233;-29
2023/11/12 02:58:00;;;;;;;4.40;4.00;;;10.40;97.00;;;;;;4986047;28;20419;-28
2023/11/12 03:00:29;;;;;;;4.60;4.20;;;10.40;96.90;;;;;;5019816;28;20664;-28
2023/11/12 03:03:00;;;;;;;4.93;3.93;;;10.40;96.90;;;;;;5001516;28;20466;-29
2023/11/12 03:05:29;;;;;;;5.20;4.37;;;10.40;96.80;;;;;;5003604;28;20920;-30
2023/11/12 03:07:57;;;;;;;5.60;4.47;;;10.40;96.90;;;;;;5011299;28;20495;-28
2023/11/12 03:10:26;;;;;;;8.37;4.47;;;10.30;96.90;;;;;;4986530;28;20439;-29
2023/11/12 03:12:54;;;;;;;6.83;4.03;;;10.30;96.90;;;;;;4985212;28;20505;-29
2023/11/12 03:15:26;;;;;;;5.17;4.67;;;10.30;97.00;;;;;;5019815;28;20518;-28
2023/11/12 03:17:52;;;;;;;5.43;4.87;;;10.30;97.00;;;;;;4985080;28;20427;-28
2023/11/12 03:20:18;;;;;;;6.70;4.63;;;10.30;97.00;;;;;;4993273;28;20456;-27
2023/11/12 03:22:49;;;;;;;4.67;4.17;;;10.20;97.00;;;;;;5016175;28;20451;-30
2023/11/12 03:25:15;;;;;;;5.30;4.60;;;10.20;97.10;;;;;;5018373;28;20537;-30
2023/11/12 03:27:43;;;;;;;4.43;4.03;;;10.20;97.10;;;;;;5002174;28;20424;-27
2023/11/12 03:30:13;;;;;;;4.20;3.80;;;10.20;97.10;;;;;;5001114;28;20194;-30
2023/11/12 03:32:41;;;;;;;6.83;4.10;;;10.30;97.00;;;;;;5001698;28;20474;-31
2023/11/12 03:35:08;;;;;;;5.23;4.73;;;10.30;97.00;;;;;;5019212;28;20426;-30
2023/11/12 03:37:34;;;;;;;5.05;4.35;;;10.20;97.00;;;;;;5001792;28;20415;-30
2023/11/12 03:40:04;;;;;;;5.93;5.13;;;10.30;97.00;;;;;;4985863;28;20231;-30
2023/11/12 03:42:32;;;;;;;4.63;4.23;;;10.30;96.90;;;;;;5001871;28;20427;-28
2023/11/12 03:45:06;;;;;;;6.97;4.07;;;10.30;96.90;;;;;;5000430;28;20428;-29
2023/11/12 03:47:35;;;;;;;6.90;4.40;;;10.30;96.90;;;;;;5018718;28;20536;-28
2023/11/12 03:50:01;;;;;;;4.40;4.00;;;10.20;96.90;;;;;;5010361;28;20419;-29
2023/11/12 03:52:30;;;;;;;4.47;4.00;;;10.20;97.00;;;;;;5016153;28;20558;-30
2023/11/12 03:54:56;;;;;;;5.17;4.67;;;10.20;97.00;;;;;;5007357;28;20428;-31
2023/11/12 03:57:22;;;;;;;5.55;4.53;;;10.30;96.90;;;;;;5010609;28;20438;-29
2023/11/12 03:59:53;;;;;;;4.07;3.67;;;10.30;96.90;;;;;;5020165;28;20216;-29
2023/11/12 04:02:23;;;;;;;5.80;4.00;;;10.30;96.80;;;;;;5009423;28;20450;-29
2023/11/12 04:04:49;;;;;;;5.57;3.90;;;10.30;96.70;;;;;;4989489;28;20460;-30
2023/11/12 04:07:16;;;;;;;4.80;4.40;;;10.30;96.70;;;;;;5009834;28;20462;-28
2023/11/12 04:09:42;;;;;;;5.13;4.15;;;10.30;96.70;;;;;;5008052;28;20192;-29
2023/11/12 04:12:08;;;;;;;5.63;4.07;;;10.30;96.60;;;;;;5008677;28;20225;-29
2023/11/12 04:14:36;;;;;;;5.90;4.37;;;10.30;96.50;;;;;;5017098;28;20451;-27
2023/11/12 04:17:02;;;;;;;4.37;3.83;;;10.30;96.50;;;;;;5000827;28;20530;-27
2023/11/12 04:19:30;;;;;;;4.83;4.43;;;10.30;96.60;;;;;;5002937;28;20444;-27
2023/11/12 04:21:57;;;;;;;5.03;3.80;;;10.20;96.60;;;;;;5018922;28;20933;-30
2023/11/12 04:24:25;;;;;;;4.87;4.23;;;10.20;96.70;;;;;;5018433;28;20439;-30
2023/11/12 04:26:52;;;;;;;4.53;4.10;;;10.20;96.80;;;;;;5000211;28;20431;-29
2023/11/12 04:29:20;;;;;;;5.97;4.45;;;10.20;96.90;;;;;;5000603;28;20424;-29
2023/11/12 04:31:46;;;;;;;4.35;3.75;;;10.20;96.90;;;;;;5020450;28;20209;-28
2023/11/12 04:34:14;;;;;;;4.90;4.40;;;10.20;96.90;;;;;;5004443;28;20195;-28
2023/11/12 04:36:40;;;;;;;5.00;4.50;;;10.20;96.80;;;;;;4987885;28;20634;-29
2023/11/12 04:39:07;;;;;;;4.03;3.70;;;10.30;96.70;;;;;;5007549;28;20427;-30
2023/11/12 04:41:35;;;;;;;6.00;4.30;;;10.30;96.70;;;;;;5014625;28;20463;-27
2023/11/12 04:44:05;;;;;;;4.93;4.20;;;10.20;96.70;;;;;;5016980;28;20469;-29
2023/11/12 04:46:31;;;;;;;4.80;4.00;;;10.20;96.80;;;;;;5005045;28;20423;-28
2023/11/12 04:49:02;;;;;;;3.80;3.50;;;10.20;96.80;;;;;;5004920;28;20905;-29
2023/11/12 04:51:31;;;;;;;4.43;3.53;;;10.20;96.90;;;;;;5004922;28;20449;-31
2023/11/12 04:53:57;;;;;;;5.40;4.00;;;10.10;96.90;;;;;;5002855;28;20451;-27
2023/11/12 04:56:23;;;;;;;4.93;4.00;;;10.20;97.00;;;;;;4989949;28;20196;-27
2023/11/12 04:58:49;;;;;;;5.60;3.90;;;10.20;96.90;;;;;;5030678;28;20243;-28
2023/11/12 05:01:17;;;;;;;3.83;3.43;;;10.20;96.80;;;;;;5022420;28;20463;-28
2023/11/12 05:03:45;;;;;;;5.87;4.30;;;10.20;96.80;;;;;;5025508;28;20497;-30
2023/11/12 05:06:14;;;;;;;4.80;4.27;;;10.20;96.80;;;;;;5003064;28;21124;-29
2023/11/12 05:08:46;;;;;;;5.00;4.30;;;10.20;96.90;;;;;;5041687;28;20446;-29
2023/11/12 05:11:12;;;;;;;4.90;4.40;;;10.10;96.90;;;;;;4994712;28;21356;-28
2023/11/12 05:13:40;;;;;;;4.28;3.88;;;10.10;97.00;;;;;;5015421;28;20813;-30
2023/11/12 05:16:06;;;;;;;4.10;3.37;;;10.20;96.90;;;;;;5019026;28;20942;-27
2023/11/12 05:18:35;;;;;;;4.70;4.30;;;10.20;96.80;;;;;;5022126;28;20494;-30
2023/11/12 05:21:01;;;;;;;4.90;4.40;;;10.30;96.80;;;;;;5020659;28;21365;-29
2023/11/12 05:23:27;;;;;;;4.73;3.83;;;10.20;96.90;;;;;;5021640;28;20420;-29
2023/11/12 05:25:54;;;;;;;6.30;4.20;;;10.20;96.90;;;;;;5010995;28;20441;-30
2023/11/12 05:28:20;;;;;;;4.97;3.63;;;10.10;96.90;;;;;;5002938;28;21074;-30
2023/11/12 05:30:46;;;;;;;4.50;4.00;;;10.10;97.00;;;;;;5021037;28;20478;-28
2023/11/12 05:33:12;;;;;;;4.80;3.63;;;10.10;97.00;;;;;;5027711;28;20512;-29
2023/11/12 05:35:38;;;;;;;6.63;4.10;;;10.10;97.10;;;;;;5016500;28;20189;-28
2023/11/12 05:38:06;;;;;;;4.67;3.90;;;10.10;97.10;;;;;;5012152;28;20445;-29
2023/11/12 05:40:33;;;;;;;4.77;4.17;;;10.10;97.20;;;;;;5041145;28;20387;-27
2023/11/12 05:43:01;;;;;;;4.10;3.53;;;10.10;97.20;;;;;;5024094;28;20517;-30
2023/11/12 05:45:27;;;;;;;4.27;3.87;;;10.00;97.10;;;;;;5022910;28;20562;-29
2023/11/12 05:47:55;;;;;;;4.07;3.67;;;10.00;97.10;;;;;;4986993;28;21098;-31
2023/11/12 05:50:24;;;;;;;4.03;3.57;;;10.10;97.20;;;;;;5000619;28;20436;-27
2023/11/12 05:52:51;;;;;;;4.03;3.53;;;10.00;97.10;;;;;;4967005;28;20472;-29
2023/11/12 05:55:19;;;;;;;6.00;4.00;;;10.00;97.10;;;;;;5011785;28;20431;-28
2023/11/12 05:57:46;;;;;;;3.83;3.43;;;10.00;97.20;;;;;;5003431;28;20448;-29
2023/11/12 06:00:12;;;;;;;4.83;4.30;;;10.00;97.20;;;;;;5020558;28;20469;-29
2023/11/12 06:02:39;;;;;;;3.90;3.50;;;10.00;97.20;;;;;;5026807;28;20870;-29
2023/11/12 06:05:10;;;;;;;4.00;3.60;;;10.00;97.20;;;;;;5022214;28;20917;-28
2023/11/12 06:07:36;;;;;;;4.20;3.80;;;10.00;97.20;;;;;;5026496;28;21288;-30
2023/11/12 06:10:02;;;;;;;6.13;4.30;;;10.00;97.20;;;;;;5002586;28;20438;-27
2023/11/12 06:12:30;;;;;;;5.33;4.03;;;10.00;97.20;;;;;;5002265;28;20502;-29
2023/11/12 06:14:58;;;;;;;3.70;3.40;;;10.00;97.20;;;;;;5001858;28;20497;-29
2023/11/12 06:17:26;;;;;;;6.43;4.30;;;10.00;97.20;;;;;;5019812;28;20432;-29
2023/11/12 06:19:52;;;;;;;4.20;3.50;;;10.00;97.20;;;;;;5016641;28;20503;-29
2023/11/12 06:22:20;;;;;;;4.27;3.87;;;10.00;97.60;;;;;;5018643;28;20454;-29
2023/11/12 06:24:46;;;;;;;3.80;3.50;;;10.00;97.30;;;;;;4986447;28;20430;-29
2023/11/12 06:27:12;;;;;;;4.13;3.83;;;10.00;97.20;;;;;;5020331;28;20498;-29
2023/11/12 06:29:40;;;;;;;5.83;3.83;;;10.00;97.20;;;;;;5021397;28;20443;-28
2023/11/12 06:32:09;;;;;;;4.00;3.60;;;10.00;97.20;;;;;;5020455;28;20463;-30
2023/11/12 06:34:35;;;;;;;4.40;4.00;;;10.00;97.30;;;;;;5014238;28;20438;-29
2023/11/12 06:37:02;;;;;;;4.30;3.87;;;10.00;97.30;;;;;;5022819;28;20412;-29
2023/11/12 06:39:29;;;;;;;4.15;3.55;;;9.90;97.90;;;;;;4971076;28;20488;-27
2023/11/12 06:41:55;;;;;;;4.37;3.73;;;10.00;97.30;;;;;;5015725;28;20257;-29
2023/11/12 06:44:23;;;;;;;4.10;3.70;;;10.00;97.20;;;;;;5003736;28;20439;-29
2023/11/12 06:46:51;;;;;;;5.67;4.00;;;10.00;97.20;;;;;;5039315;28;20449;-30
2023/11/12 06:49:22;;;;;;;4.17;3.77;;;10.00;97.10;;;;;;5019233;28;20548;-28
2023/11/12 06:51:48;;;;;;;5.95;3.50;;;10.00;97.10;;;;;;5018768;28;20986;-29
2023/11/12 06:54:15;;;;;;;3.77;3.30;;;10.00;97.20;;;;;;5018683;28;20179;-27
2023/11/12 06:56:41;;;;;;;4.78;4.38;;;10.00;97.10;;;;;;4999735;28;20493;-27
2023/11/12 06:59:09;;;;;;;5.37;3.90;;;10.10;97.00;;;;;;5018219;28;20177;-29
2023/11/12 07:01:39;;;;;;;3.50;3.20;;;10.10;97.00;;;;;;5001888;28;21553;-30
2023/11/12 07:04:06;;;;;;;5.60;3.03;;;10.10;96.90;;;;;;5023418;28;20188;-28
2023/11/12 07:06:33;;;;;;;4.47;3.63;;;10.10;96.90;;;;;;5020220;28;20764;-27
2023/11/12 07:08:59;;;;;;;4.23;3.83;;;10.10;96.90;;;;;;4999400;28;20635;-30
2023/11/12 07:11:25;;;;;;;3.60;3.30;;;10.10;96.90;;;;;;5002270;28;20837;-29
2023/11/12 07:13:51;;;;;;;3.97;3.57;;;10.10;97.00;;;;;;5017974;28;20435;-27
2023/11/12 07:16:18;;;;;;;3.95;3.55;;;10.00;96.90;;;;;;5018720;28;20419;-27
2023/11/12 07:18:47;;;;;;;4.23;3.63;;;10.00;97.00;;;;;;5003567;28;20289;-30
2023/11/12 07:21:13;;;;;;;5.53;3.60;;;10.00;96.90;;;;;;5000499;28;20443;-29
2023/11/12 07:23:39;;;;;;;3.93;3.33;;;10.00;96.90;;;;;;5008571;28;20504;-29
2023/11/12 07:26:05;;;;;;;3.70;3.13;;;10.00;96.90;;;;;;5025376;28;21622;-29
2023/11/12 07:28:32;;;;;;;3.80;3.40;;;10.00;97.00;;;;;;5014696;28;20423;-30
2023/11/12 07:30:58;;;;;;;5.25;3.35;;;10.00;97.10;;;;;;5023552;28;20843;-29
2023/11/12 07:33:23;;;;;;;4.55;3.30;;;10.00;97.10;;;;;;5020115;28;20773;-28
2023/11/12 07:35:50;;;;;;;3.60;3.30;;;10.00;97.00;;;;;;4975615;28;20188;-30
2023/11/12 07:38:45;;;;;;;4.30;3.47;;;10.10;96.90;;;;;;4979112;28;20442;-28
2023/11/12 07:41:11;;;;;;;3.90;3.33;;;10.00;96.80;;;;;;5012508;28;20447;-28
2023/11/12 07:43:38;;;;;;;3.28;2.90;;;10.00;96.90;;;;;;4999035;28;20951;-30
2023/11/12 07:46:07;;;;;;;6.23;3.43;;;10.00;96.90;;;;;;5029429;28;20243;-29
2023/11/12 07:48:33;;;;;;;5.40;3.40;;;10.00;96.90;;;;;;5022572;28;20972;-30
2023/11/12 07:51:00;;;;;;;4.00;3.60;;;10.00;96.90;;;;;;5026598;28;20428;-30
2023/11/12 07:53:28;;;;;;;4.60;3.40;;;10.00;97.00;;;;;;5026544;28;20570;-29
2023/11/12 07:55:54;;;;;;;3.47;3.17;;;10.00;97.00;;;;;;5028482;28;21310;-30
2023/11/12 07:58:22;;;;;;;3.70;3.40;;;9.90;97.60;;;;;;5010935;28;20435;-30
2023/11/12 08:00:49;;;;;;;3.67;3.30;;;9.90;97.70;;;;;;5028324;28;20466;-30
2023/11/12 08:03:15;;;;;;;4.63;3.37;;;9.90;97.70;;;;;;5033943;28;20529;-29
2023/11/12 08:05:41;;;;;;;4.10;3.45;;;9.90;97.70;;;;;;5010011;28;21088;-29
2023/11/12 08:08:07;;;;;;;5.17;3.37;;;9.90;97.70;;;;;;5014132;28;20704;-30
2023/11/12 08:10:43;;;;;;;3.83;3.53;;;10.00;97.10;;;;;;5038355;28;20492;-30
2023/11/12 08:13:09;;;;;;;4.10;3.73;;;10.00;97.10;;;;;;5016741;28;20478;-30
2023/11/12 08:18:51;;;;;;;3.33;2.87;;;10.00;97.00;;;;;;5033557;28;20438;-30
2023/11/12 08:21:19;;;;;;;3.73;3.07;;;10.00;97.00;;;;;;5033746;28;20529;-28
2023/11/12 08:23:47;;;;;;;4.53;2.97;;;9.90;97.60;;;;;;5024027;28;20423;-28
2023/11/12 08:26:15;;;;;;;4.47;3.80;;;9.90;97.70;;;;;;5016214;28;20249;-30
2023/11/12 08:28:47;;;;;;;7.53;3.30;;;10.00;97.10;;;;;;5003829;28;21421;-30
2023/11/12 08:31:13;;;;;;;5.57;3.87;;;10.00;97.00;;;;;;5019105;28;20446;-29
2023/11/12 08:33:42;;;;;;;3.40;3.10;;;9.90;97.60;;;;;;5044172;28;20489;-29
2023/11/12 08:36:09;;;;;;;6.70;3.50;;;9.90;97.70;;;;;;5014999;28;20459;-30
2023/11/12 08:38:35;;;;;;;4.20;3.20;;;9.90;97.70;;;;;;5018655;28;20449;-31
2023/11/12 08:41:05;;;;;;;4.70;3.70;;;9.90;97.70;;;;;;5007061;28;20430;-31
2023/11/12 08:43:32;;;;;;;3.20;2.90;;;9.90;97.80;;;;;;5003204;28;20469;-30
2023/11/12 08:45:58;;;;;;;3.23;2.90;;;9.90;97.80;;;;;;4988442;28;20681;-29
2023/11/12 08:48:31;;;;;;;3.20;2.88;;;9.90;97.80;;;;;;4993887;28;20438;-30
2023/11/12 08:50:58;;;;;;;3.50;3.00;;;9.90;97.90;;;;;;5019347;28;20188;-29
2023/11/12 08:53:27;;;;;;;4.53;3.13;;;9.90;97.80;;;;;;5039247;28;20466;-30
2023/11/12 08:55:53;;;;;;;3.40;3.10;;;9.90;97.80;;;;;;5034989;28;20529;-29
2023/11/12 08:58:21;;;;;;;3.93;3.20;;;9.90;97.80;;;;;;4999721;28;20509;-31
2023/11/12 09:00:50;;;;;;;4.10;3.23;;;9.90;97.90;;;;;;5029734;28;20516;-30
2023/11/12 09:03:17;;;;;;;3.70;3.27;;;9.90;97.90;;;;;;5021364;28;20893;-29
2023/11/12 09:05:44;;;;;;;4.97;2.90;;;9.90;97.90;;;;;;5020826;28;20958;-29
2023/11/12 09:08:10;;;;;;;3.73;3.00;;;9.90;98.00;;;;;;5037192;28;20426;-29
2023/11/12 09:10:37;;;;;;;3.70;3.20;;;9.90;98.00;;;;;;5019333;28;20953;-29
2023/11/12 09:13:05;;;;;;;4.13;3.73;;;9.90;98.00;;;;;;5035207;28;20514;-30
2023/11/12 09:15:34;;;;;;;3.23;2.93;;;9.90;98.00;;;;;;5038809;28;20424;-31
2023/11/12 09:18:00;;;;;;;3.63;3.03;;;9.90;98.10;;;;;;5019593;28;20815;-29
2023/11/12 09:20:31;;;;;;;4.07;3.20;;;9.90;98.10;;;;;;5032596;28;20416;-28
2023/11/12 09:22:59;;;;;;;3.00;2.67;;;9.90;98.10;;;;;;5033247;28;20490;-29
2023/11/12 09:25:26;;;;;;;5.15;3.00;;;9.90;98.10;;;;;;5003993;28;20455;-30
2023/11/12 09:27:52;;;;;;;3.40;3.10;;;9.90;98.10;;;;;;5038277;28;20246;-30
2023/11/12 09:30:18;;;;;;;3.63;3.33;;;10.00;97.50;;;;;;5038614;28;21028;-28
2023/11/12 09:32:45;;;;;;;3.08;2.80;;;10.00;97.30;;;;;;5029997;28;20219;-30
2023/11/12 09:35:11;;;;;;;3.93;3.20;;;10.10;97.30;;;;;;5036114;28;20363;-29
2023/11/12 09:37:37;;;;;;;3.87;2.90;;;10.10;97.10;;;;;;5028994;28;20443;-31
2023/11/12 09:40:10;;;;;;;4.03;3.63;;;10.10;97.10;;;;;;5017792;28;21309;-30
2023/11/12 09:42:47;;;;;;;4.00;3.73;;;10.10;97.20;;;;;;5005041;28;20456;-29
2023/11/12 09:45:18;;;;;;;3.37;3.00;;;10.10;97.20;;;;;;5036169;28;21044;-29
2023/11/12 09:48:18;;;;;;;4.33;3.60;;;10.00;97.30;;;;;;5027026;28;20510;-30
2023/11/12 09:50:48;;;;;;;3.20;3.00;;;10.00;97.40;;;;;;5016025;28;20509;-29
2023/11/12 09:53:15;;;;;;;4.10;3.00;;;10.00;97.40;;;;;;5000705;28;20481;-29
2023/11/12 09:55:45;;;;;;;3.37;3.07;;;10.00;97.40;;;;;;5017197;28;20422;-28
2023/11/12 09:58:11;;;;;;;3.30;3.00;;;10.00;97.50;;;;;;5021647;28;20422;-29
2023/11/12 10:00:39;;;;;;;3.70;3.20;;;10.00;97.50;;;;;;5129844;22;21166;-26
2023/11/12 10:03:08;;;;;;;4.40;3.10;;;10.00;97.50;;;;;;5022173;28;20459;-25
2023/11/12 10:05:35;;;;;;;3.77;3.43;;;10.00;97.50;;;;;;5005281;28;20793;-26
2023/11/12 10:08:05;;;;;;;3.20;2.90;;;10.00;97.60;;;;;;5038776;28;20835;-26
2023/11/12 10:10:31;;;;;;;4.47;3.17;;;10.00;97.60;;;;;;5039740;28;20193;-25
2023/11/12 10:12:58;;;;;;;5.03;3.30;;;10.10;97.60;;;;;;5038521;28;20970;-25
2023/11/12 10:15:25;;;;;;;3.93;3.40;;;10.10;97.60;;;;;;5021571;28;20481;-26
2023/11/12 10:17:53;;;;;;;4.50;3.13;;;10.10;97.70;;;;;;5038923;28;21201;-26
2023/11/12 10:20:24;;;;;;;3.87;3.53;;;10.10;97.70;;;;;;5005198;28;20457;-25
2023/11/12 10:22:54;;;;;;;3.95;3.55;;;10.10;98.10;;;;;;5042974;28;20443;-26
2023/11/12 10:25:40;;;;;;;5.80;3.33;;;10.10;97.90;;;;;;5050744;28;20226;-26
2023/11/12 10:28:11;;;;;;;2.90;2.63;;;10.10;97.80;;;;;;5025333;28;20442;-26
2023/11/12 10:30:41;;;;;;;3.30;3.00;;;10.10;97.70;;;;;;5054617;28;20954;-25
2023/11/12 10:33:28;;;;;;;4.57;3.20;;;10.10;97.70;;;;;;5048605;28;20484;-26
2023/11/12 10:35:57;;;;;;;5.30;3.30;;;10.10;97.70;;;;;;5048795;28;20467;-26
2023/11/12 10:38:24;;;;;;;3.63;3.10;;;10.10;97.70;;;;;;5038235;28;20548;-26
2023/11/12 10:41:02;;;;;;;3.90;3.13;;;10.10;97.70;;;;;;5045529;28;20501;-25
2023/11/12 10:43:35;;;;;;;3.10;2.90;;;10.10;97.90;;;;;;5016940;28;20533;-26
2023/11/12 10:46:06;;;;;;;2.58;2.38;;;10.10;97.90;;;;;;5049454;28;20446;-26
2023/11/12 10:48:37;;;;;;;5.20;3.17;;;10.10;97.90;;;;;;5024522;28;20220;-25
2023/11/12 10:51:05;;;;;;;3.87;2.93;;;10.20;97.80;;;;;;5051806;28;20473;-26
2023/11/12 10:53:39;;;;;;;4.30;3.00;;;10.20;97.80;;;;;;5018928;28;20491;-26
2023/11/12 10:56:05;;;;;;;3.67;3.30;;;10.20;97.60;;;;;;5046421;28;20445;-26
2023/11/12 10:58:35;;;;;;;4.03;3.43;;;10.20;97.70;;;;;;5050253;28;20924;-26
2023/11/12 11:01:03;;;;;;;3.70;2.70;;;10.20;97.70;;;;;;5052482;28;20473;-26
2023/11/12 11:03:32;;;;;;;4.63;3.00;;;10.20;97.80;;;;;;5044352;28;20506;-27
2023/11/12 11:06:07;;;;;;;2.60;2.40;;;10.20;97.80;;;;;;5027255;28;20814;-26
2023/11/12 11:08:34;;;;;;;2.87;2.50;;;10.20;97.90;;;;;;5029370;28;20427;-26
2023/11/12 11:11:02;;;;;;;3.90;3.22;;;10.20;98.20;;;;;;5058650;28;20530;-27
2023/11/12 11:13:32;;;;;;;3.60;2.73;;;10.20;97.90;;;;;;5025641;28;20722;-27
2023/11/12 11:16:00;;;;;;;2.53;2.33;;;10.20;97.80;;;;;;5046040;28;20458;-27
2023/11/12 11:18:31;;;;;;;2.53;2.33;;;10.20;97.90;;;;;;5037534;28;20444;-27
2023/11/12 11:21:05;;;;;;;3.17;2.60;;;10.20;97.90;;;;;;5057928;28;20455;-28
2023/11/12 11:23:51;;;;;;;2.80;2.60;;;10.20;97.90;;;;;;5057027;28;20430;-28
2023/11/12 11:26:23;;;;;;;2.80;2.60;;;10.20;97.80;;;;;;5027512;28;20473;-28
2023/11/12 11:29:09;;;;;;;4.40;3.90;;;10.30;97.90;;;;;;5027415;28;20271;-29
2023/11/12 11:31:38;;;;;;;2.67;2.47;;;10.30;97.80;;;;;;5046105;28;21100;-29
2023/11/12 11:34:07;;;;;;;3.80;3.53;;;10.30;97.80;;;;;;5040329;28;20424;-28
2023/11/12 11:36:35;;;;;;;3.00;2.80;;;10.30;97.80;;;;;;5026562;28;20446;-29
2023/11/12 11:39:15;;;;;;;2.87;2.57;;;10.30;97.90;;;;;;5044860;28;20239;-28
2023/11/12 11:41:50;;;;;;;2.93;2.40;;;10.30;97.80;;;;;;5024046;28;20495;-29
2023/11/12 11:44:32;;;;;;;3.13;2.83;;;10.30;97.80;;;;;;5048832;28;20555;-29
2023/11/12 11:47:18;;;;;;;2.65;2.45;;;10.30;97.80;;;;;;5014196;28;20495;-28
2023/11/12 11:49:58;;;;;;;3.22;2.92;;;10.30;97.80;;;;;;5021921;28;20312;-28
2023/11/12 11:52:28;;;;;;;4.33;2.87;;;10.40;97.70;;;;;;5008605;28;20218;-29
2023/11/12 11:54:57;;;;;;;4.40;2.50;;;10.40;97.60;;;;;;5039153;28;20450;-29
2023/11/12 11:57:29;;;;;;;2.80;2.50;;;10.40;97.60;;;;;;5045574;28;20794;-27
2023/11/12 11:59:58;;;;;;;2.50;2.30;;;10.40;97.60;;;;;;5025598;28;20434;-28
2023/11/12 12:02:25;;;;;;;3.10;2.77;;;10.40;97.70;;;;;;5028628;28;20468;-28
2023/11/12 12:04:58;;;;;;;3.10;2.80;;;10.40;97.80;;;;;;5024734;28;20537;-29
2023/11/12 12:07:26;;;;;;;3.30;2.67;;;10.40;97.80;;;;;;5045314;28;20931;-29
2023/11/12 12:09:54;;;;;;;3.43;2.90;;;10.40;97.80;;;;;;5026366;28;20691;-27
2023/11/12 12:12:21;;;;;;;2.90;2.60;;;10.50;97.70;;;;;;5025780;28;20463;-30
2023/11/12 12:14:52;;;;;;;3.15;2.78;;;10.50;97.70;;;;;;5010823;28;20431;-27
2023/11/12 12:17:18;;;;;;;3.10;2.77;;;10.50;97.70;;;;;;5025958;28;20515;-28
2023/11/12 12:19:55;;;;;;;4.97;3.10;;;10.50;97.70;;;;;;5021981;28;20437;-29
2023/11/12 12:22:23;;;;;;;3.27;2.60;;;10.50;97.70;;;;;;5044645;28;20567;-28
2023/11/12 12:24:52;;;;;;;4.40;2.83;;;10.50;97.70;;;;;;5049777;28;20506;-28
2023/11/12 12:27:20;;;;;;;4.57;4.10;;;10.50;97.80;;;;;;5037763;28;20424;-29
2023/11/12 12:29:50;;;;;;;5.30;3.40;;;10.50;97.60;;;;;;5023318;28;20555;-28
2023/11/12 12:32:18;;;;;;;5.10;3.70;;;10.50;97.60;;;;;;5040703;28;20472;-29
2023/11/12 12:34:56;;;;;;;5.70;3.17;;;10.50;97.70;;;;;;4998303;28;20926;-28
2023/11/12 12:37:27;;;;;;;4.10;3.70;;;10.50;97.70;;;;;;5040984;28;20455;-28
2023/11/12 12:40:27;;;;;;;4.47;3.30;;;10.50;97.80;;;;;;5023222;28;20508;-29
2023/11/12 12:42:54;;;;;;;4.07;3.10;;;10.50;97.80;;;;;;5031788;28;20479;-29
2023/11/12 12:45:21;;;;;;;4.40;3.97;;;10.40;97.70;;;;;;4999527;28;20443;-29
2023/11/12 12:47:50;;;;;;;3.47;2.95;;;10.50;97.80;;;;;;5042496;28;20425;-28
2023/11/12 12:50:29;;;;;;;4.93;3.47;;;10.60;97.70;;;;;;5045175;28;20267;-29
2023/11/12 12:53:17;;;;;;;4.10;3.43;;;10.60;97.60;;;;;;5027332;28;20552;-28
2023/11/12 12:55:45;;;;;;;4.63;3.00;;;10.60;97.60;;;;;;5035465;28;20909;-28
2023/11/12 12:58:14;;;;;;;4.07;3.20;;;10.60;97.60;;;;;;5046843;28;20434;-29